createdAt,value
2022-10-28T00:00:09.418Z,89.25
2022-10-28T00:01:16.225Z,89.11
2022-10-28T00:02:18.198Z,89.03
2022-10-28T00:03:20.074Z,89.43
2022-10-28T00:04:21.981Z,88.96
2022-10-28T00:05:23.787Z,88.99
2022-10-28T00:06:30.962Z,89.10
2022-10-28T00:07:32.736Z,88.93
2022-10-28T00:08:34.705Z,89.01
2022-10-28T00:09:36.509Z,89.25
2022-10-28T00:10:38.384Z,89.31
2022-10-28T00:11:40.157Z,88.92
2022-10-28T00:12:41.977Z,89.07
2022-10-28T00:13:44.578Z,89.03
2022-10-28T00:14:46.430Z,88.48
2022-10-28T00:15:48.151Z,88.79
2022-10-28T00:16:49.949Z,88.67
2022-10-28T00:17:52.094Z,89.07
2022-10-28T00:18:54.473Z,88.57
2022-10-28T00:19:56.287Z,89.14
2022-10-28T00:21:02.555Z,88.89
2022-10-28T00:22:04.317Z,89.12
2022-10-28T00:23:06.121Z,89.05
2022-10-28T00:24:08.784Z,89.04
2022-10-28T00:25:11.001Z,88.70
2022-10-28T00:26:14.217Z,89.07
2022-10-28T00:27:15.983Z,88.48
2022-10-28T00:28:17.712Z,88.16
2022-10-28T00:29:20.045Z,88.64
2022-10-28T00:30:22.005Z,88.07
2022-10-28T00:31:24.971Z,88.32
2022-10-28T00:32:29.888Z,88.60
2022-10-28T00:33:31.807Z,88.55
2022-10-28T00:34:33.554Z,88.91
2022-10-28T00:35:35.373Z,88.81
2022-10-28T00:36:38.167Z,88.87
2022-10-28T00:37:40.029Z,89.01
2022-10-28T00:38:42.607Z,89.25
2022-10-28T00:39:44.459Z,88.99
2022-10-28T00:40:46.279Z,89.02
2022-10-28T00:41:49.730Z,89.24
2022-10-28T00:42:52.135Z,89.55
2022-10-28T00:43:58.243Z,89.68
2022-10-28T00:45:01.165Z,89.08
2022-10-28T00:46:03.268Z,89.08
2022-10-28T00:47:06.211Z,89.39
2022-10-28T00:48:08.533Z,89.13
2022-10-28T00:49:14.783Z,89.05
2022-10-28T00:50:39.656Z,88.88
2022-10-28T00:51:42.007Z,88.81
2022-10-28T00:52:46.298Z,89.44
2022-10-28T00:53:48.622Z,89.31
2022-10-28T00:54:51.875Z,88.87
2022-10-28T00:55:54.841Z,88.88
2022-10-28T00:56:57.809Z,88.95
2022-10-28T00:57:59.680Z,89.18
2022-10-28T00:59:03.143Z,89.42
2022-10-28T01:00:06.391Z,89.51
2022-10-28T01:01:08.255Z,89.19
2022-10-28T01:02:10.409Z,89.27
2022-10-28T01:03:12.246Z,89.40
2022-10-28T01:04:14.125Z,89.30
2022-10-28T01:05:23.433Z,89.56
2022-10-28T01:06:27.019Z,89.55
2022-10-28T01:07:29.024Z,89.67
2022-10-28T01:08:30.940Z,89.32
2022-10-28T01:09:32.714Z,89.61
2022-10-28T01:10:41.653Z,89.54
2022-10-28T01:11:52.395Z,89.24
2022-10-28T01:13:11.664Z,89.13
2022-10-28T01:14:26.759Z,88.94
2022-10-28T01:15:31.372Z,88.98
2022-10-28T01:16:42.662Z,88.63
2022-10-28T01:17:50.602Z,88.69
2022-10-28T01:19:11.144Z,88.83
2022-10-28T01:20:16.019Z,88.45
2022-10-28T01:21:20.757Z,88.85
2022-10-28T01:22:26.019Z,88.84
2022-10-28T01:23:27.800Z,88.42
2022-10-28T01:24:52.493Z,88.70
2022-10-28T01:26:13.615Z,88.49
2022-10-28T01:27:41.444Z,88.49
2022-10-28T01:28:49.089Z,88.57
2022-10-28T01:30:11.761Z,88.37
2022-10-28T01:31:22.697Z,88.40
2022-10-28T01:32:27.421Z,88.61
2022-10-28T01:33:33.599Z,88.32
2022-10-28T01:34:44.380Z,88.93
2022-10-28T01:36:04.354Z,89.03
2022-10-28T01:37:18.122Z,88.75
2022-10-28T01:38:35.276Z,89.27
2022-10-28T01:39:43.245Z,88.90
2022-10-28T01:40:58.319Z,88.47
2022-10-28T01:42:18.699Z,89.09
2022-10-28T01:43:28.706Z,88.79
2022-10-28T01:44:59.610Z,89.00
2022-10-28T01:46:04.728Z,88.85
2022-10-28T01:47:15.433Z,88.95
2022-10-28T01:48:19.813Z,89.20
2022-10-28T01:49:29.145Z,88.97
2022-10-28T01:50:43.184Z,88.84
2022-10-28T01:51:50.384Z,89.23
2022-10-28T01:52:57.663Z,88.80
2022-10-28T01:54:01.471Z,88.32
2022-10-28T01:55:10.879Z,88.84
2022-10-28T01:56:16.318Z,89.00
2022-10-28T01:57:18.574Z,88.56
2022-10-28T01:58:24.018Z,88.39
2022-10-28T01:59:28.179Z,88.66
2022-10-28T02:00:30.530Z,88.21
2022-10-28T02:01:33.237Z,88.68
2022-10-28T02:02:37.045Z,88.64
2022-10-28T02:03:39.255Z,88.54
2022-10-28T02:04:41.000Z,89.06
2022-10-28T02:05:50.276Z,88.90
2022-10-28T02:06:53.883Z,88.48
2022-10-28T02:07:59.456Z,88.78
2022-10-28T02:09:27.349Z,88.94
2022-10-28T02:10:34.260Z,88.90
2022-10-28T02:11:44.864Z,89.04
2022-10-28T02:12:48.687Z,89.01
2022-10-28T02:13:59.668Z,89.03
2022-10-28T02:15:24.214Z,88.99
2022-10-28T02:16:43.301Z,89.09
2022-10-28T02:17:53.125Z,88.87
2022-10-28T02:18:54.984Z,89.22
2022-10-28T02:20:05.951Z,89.16
2022-10-28T02:21:17.246Z,88.70
2022-10-28T02:22:23.099Z,89.21
2022-10-28T02:23:34.239Z,88.81
2022-10-28T02:25:08.491Z,89.26
2022-10-28T02:26:10.268Z,89.04
2022-10-28T02:27:14.791Z,89.18
2022-10-28T02:28:19.036Z,89.15
2022-10-28T02:29:36.386Z,89.16
2022-10-28T02:30:54.387Z,88.95
2022-10-28T02:31:57.955Z,88.94
2022-10-28T02:33:01.556Z,88.84
2022-10-28T02:34:07.217Z,88.92
2022-10-28T02:35:13.330Z,88.88
2022-10-28T02:36:17.083Z,88.47
2022-10-28T02:37:23.697Z,88.41
2022-10-28T02:38:27.944Z,88.67
2022-10-28T02:39:33.235Z,88.11
2022-10-28T02:40:36.653Z,88.45
2022-10-28T02:41:53.665Z,88.72
2022-10-28T02:42:58.063Z,88.42
2022-10-28T02:44:02.445Z,88.27
2022-10-28T02:45:16.647Z,88.30
2022-10-28T02:46:19.520Z,88.38
2022-10-28T02:47:24.425Z,88.16
2022-10-28T02:48:32.635Z,87.75
2022-10-28T02:49:37.600Z,88.20
2022-10-28T02:50:42.667Z,87.61
2022-10-28T02:51:52.686Z,87.89
2022-10-28T02:52:58.047Z,88.20
2022-10-28T02:54:03.897Z,87.84
2022-10-28T02:55:06.260Z,88.45
2022-10-28T02:56:09.469Z,88.13
2022-10-28T02:57:15.205Z,88.03
2022-10-28T02:58:17.013Z,88.19
2022-10-28T02:59:18.994Z,88.34
2022-10-28T03:00:22.672Z,88.38
2022-10-28T03:01:24.657Z,88.67
2022-10-28T03:02:27.292Z,88.76
2022-10-28T03:03:29.052Z,88.27
2022-10-28T03:04:30.970Z,88.51
2022-10-28T03:05:32.820Z,88.46
2022-10-28T03:06:34.635Z,88.20
2022-10-28T03:07:36.475Z,88.21
2022-10-28T03:08:38.288Z,88.07
2022-10-28T03:09:40.113Z,87.83
2022-10-28T03:10:41.899Z,87.61
2022-10-28T03:11:43.739Z,87.41
2022-10-28T03:12:45.644Z,87.50
2022-10-28T03:13:47.524Z,87.36
2022-10-28T03:14:49.301Z,87.22
2022-10-28T03:15:51.196Z,87.07
2022-10-28T03:16:52.995Z,86.60
2022-10-28T03:17:55.257Z,86.99
2022-10-28T03:18:57.530Z,87.01
2022-10-28T03:19:59.419Z,86.80
2022-10-28T03:21:01.322Z,86.79
2022-10-28T03:22:03.135Z,86.96
2022-10-28T03:23:04.832Z,86.87
2022-10-28T03:24:06.754Z,87.33
2022-10-28T03:25:08.612Z,87.48
2022-10-28T03:26:10.358Z,87.41
2022-10-28T03:27:12.101Z,87.05
2022-10-28T03:28:13.953Z,87.28
2022-10-28T03:29:15.744Z,87.12
2022-10-28T03:30:18.950Z,87.44
2022-10-28T03:31:20.729Z,86.67
2022-10-28T03:33:29.189Z,87.13
2022-10-28T03:34:30.985Z,87.05
2022-10-28T03:35:32.901Z,87.23
2022-10-28T03:36:34.632Z,86.86
2022-10-28T03:37:36.485Z,86.91
2022-10-28T03:38:38.253Z,87.02
2022-10-28T03:39:40.049Z,87.30
2022-10-28T03:40:41.820Z,86.92
2022-10-28T03:41:43.708Z,86.53
2022-10-28T03:42:46.199Z,86.74
2022-10-28T03:43:48.289Z,86.82
2022-10-28T03:44:50.095Z,87.37
2022-10-28T03:45:51.861Z,87.30
2022-10-28T03:46:53.683Z,87.07
2022-10-28T03:47:55.764Z,86.94
2022-10-28T03:48:57.862Z,86.79
2022-10-28T03:49:59.664Z,86.24
2022-10-28T03:51:01.537Z,86.72
2022-10-28T03:52:04.344Z,86.59
2022-10-28T03:53:06.147Z,86.34
2022-10-28T03:54:07.852Z,86.61
2022-10-28T03:55:09.756Z,86.82
2022-10-28T03:56:12.113Z,86.96
2022-10-28T03:57:13.886Z,86.77
2022-10-28T03:58:15.655Z,86.47
2022-10-28T03:59:19.387Z,86.91
2022-10-28T04:00:22.203Z,86.62
2022-10-28T04:01:24.085Z,86.62
2022-10-28T04:02:27.103Z,86.61
2022-10-28T04:03:28.993Z,86.30
2022-10-28T04:04:30.998Z,86.41
2022-10-28T04:05:32.790Z,85.92
2022-10-28T04:06:34.660Z,86.32
2022-10-28T04:07:36.445Z,85.92
2022-10-28T04:08:38.227Z,86.37
2022-10-28T04:09:40.068Z,86.65
2022-10-28T04:10:47.020Z,86.82
2022-10-28T04:11:49.866Z,86.24
2022-10-28T04:12:51.947Z,86.41
2022-10-28T04:13:53.849Z,86.69
2022-10-28T04:14:55.714Z,86.22
2022-10-28T04:15:58.036Z,86.44
2022-10-28T04:16:59.834Z,86.53
2022-10-28T04:18:01.616Z,86.36
2022-10-28T04:19:03.607Z,86.44
2022-10-28T04:20:05.619Z,86.08
2022-10-28T04:21:07.465Z,86.15
2022-10-28T04:22:10.079Z,86.11
2022-10-28T04:23:15.863Z,86.44
2022-10-28T04:24:17.716Z,86.34
2022-10-28T04:25:19.481Z,86.02
2022-10-28T04:26:21.282Z,86.04
2022-10-28T04:27:23.137Z,85.84
2022-10-28T04:28:25.034Z,85.79
2022-10-28T04:29:26.780Z,85.96
2022-10-28T04:30:28.670Z,86.16
2022-10-28T04:31:30.441Z,86.34
2022-10-28T04:32:32.396Z,85.85
2022-10-28T04:33:34.230Z,86.53
2022-10-28T04:34:36.034Z,86.07
2022-10-28T04:35:39.463Z,86.46
2022-10-28T04:36:41.217Z,85.71
2022-10-28T04:37:43.092Z,85.70
2022-10-28T04:38:44.953Z,86.23
2022-10-28T04:39:46.740Z,86.33
2022-10-28T04:40:49.417Z,85.57
2022-10-28T04:41:51.189Z,85.73
2022-10-28T04:42:53.210Z,86.25
2022-10-28T04:43:56.543Z,86.04
2022-10-28T04:44:58.430Z,86.43
2022-10-28T04:46:06.186Z,86.47
2022-10-28T04:47:08.169Z,86.86
2022-10-28T04:48:10.987Z,86.44
2022-10-28T04:49:12.890Z,86.80
2022-10-28T04:50:14.819Z,86.91
2022-10-28T04:51:16.576Z,86.88
2022-10-28T04:52:18.442Z,86.76
2022-10-28T04:53:20.317Z,86.54
2022-10-28T04:54:22.239Z,86.43
2022-10-28T04:55:23.960Z,86.75
2022-10-28T04:56:25.677Z,86.41
2022-10-28T04:57:27.431Z,86.36
2022-10-28T04:58:29.271Z,86.36
2022-10-28T04:59:31.056Z,85.93
2022-10-28T05:00:32.956Z,86.13
2022-10-28T05:01:34.951Z,85.72
2022-10-28T05:02:36.871Z,85.58
2022-10-28T05:03:38.823Z,85.67
2022-10-28T05:04:40.609Z,86.01
2022-10-28T05:05:42.386Z,85.93
2022-10-28T05:06:44.327Z,85.92
2022-10-28T05:07:46.746Z,85.65
2022-10-28T05:08:48.632Z,85.80
2022-10-28T05:09:50.453Z,85.92
2022-10-28T05:10:52.256Z,86.20
2022-10-28T05:11:54.606Z,86.41
2022-10-28T05:12:56.421Z,86.36
2022-10-28T05:13:58.311Z,86.32
2022-10-28T05:15:00.179Z,86.45
2022-10-28T05:16:01.972Z,86.34
2022-10-28T05:17:03.828Z,86.33
2022-10-28T05:18:05.660Z,86.56
2022-10-28T05:19:07.493Z,86.71
2022-10-28T05:20:10.211Z,86.56
2022-10-28T05:21:12.048Z,86.80
2022-10-28T05:22:13.864Z,86.82
2022-10-28T05:23:15.699Z,86.64
2022-10-28T05:24:17.478Z,86.62
2022-10-28T05:25:20.200Z,87.07
2022-10-28T05:26:21.988Z,86.96
2022-10-28T05:27:23.789Z,86.85
2022-10-28T05:28:25.600Z,86.78
2022-10-28T05:29:32.277Z,86.33
2022-10-28T05:30:35.125Z,86.80
2022-10-28T05:31:36.992Z,86.72
2022-10-28T05:32:38.754Z,86.41
2022-10-28T05:33:40.532Z,86.71
2022-10-28T05:34:42.457Z,86.69
2022-10-28T05:35:44.241Z,86.83
2022-10-28T05:36:46.005Z,86.56
2022-10-28T05:37:47.843Z,86.57
2022-10-28T05:38:50.081Z,86.60
2022-10-28T05:39:52.959Z,86.81
2022-10-28T05:40:54.744Z,86.57
2022-10-28T05:41:56.520Z,86.96
2022-10-28T05:42:58.755Z,86.89
2022-10-28T05:44:00.566Z,87.09
2022-10-28T05:45:02.381Z,87.14
2022-10-28T05:46:05.273Z,86.72
2022-10-28T05:47:07.081Z,86.76
2022-10-28T05:48:09.105Z,86.83
2022-10-28T05:49:10.911Z,86.82
2022-10-28T05:50:14.194Z,86.81
2022-10-28T05:51:16.012Z,86.96
2022-10-28T05:52:17.818Z,86.98
2022-10-28T05:53:19.598Z,86.92
2022-10-28T05:54:21.503Z,86.77
2022-10-28T05:55:24.774Z,86.89
2022-10-28T05:56:26.545Z,87.15
2022-10-28T05:57:28.421Z,87.26
2022-10-28T05:58:30.290Z,87.41
2022-10-28T05:59:32.076Z,87.14
2022-10-28T06:00:34.023Z,87.28
2022-10-28T06:01:35.868Z,87.25
2022-10-28T06:02:37.711Z,87.56
2022-10-28T06:03:39.460Z,87.45
2022-10-28T06:04:42.459Z,87.29
2022-10-28T06:05:45.597Z,87.25
2022-10-28T06:06:47.443Z,87.05
2022-10-28T06:07:49.217Z,86.59
2022-10-28T06:08:51.030Z,86.70
2022-10-28T06:09:53.135Z,86.61
2022-10-28T06:10:54.104Z,86.12
2022-10-28T06:11:55.931Z,86.54
2022-10-28T06:12:58.194Z,85.98
2022-10-28T06:14:00.320Z,86.07
2022-10-28T06:15:02.761Z,86.26
2022-10-28T06:16:04.949Z,86.23
2022-10-28T06:17:06.711Z,86.25
2022-10-28T06:18:08.645Z,86.17
2022-10-28T06:19:10.462Z,85.79
2022-10-28T06:20:12.253Z,85.94
2022-10-28T06:21:14.077Z,86.01
2022-10-28T06:22:15.910Z,85.38
2022-10-28T06:23:17.704Z,85.24
2022-10-28T06:24:19.476Z,85.41
2022-10-28T06:25:22.378Z,84.94
2022-10-28T06:26:24.295Z,85.03
2022-10-28T06:27:26.167Z,84.90
2022-10-28T06:28:28.362Z,84.89
2022-10-28T06:29:31.013Z,85.24
2022-10-28T06:30:32.781Z,85.03
2022-10-28T06:31:37.528Z,85.21
2022-10-28T06:32:39.284Z,84.70
2022-10-28T06:33:41.095Z,84.82
2022-10-28T06:34:42.828Z,84.80
2022-10-28T06:35:44.594Z,84.76
2022-10-28T06:36:46.867Z,84.85
2022-10-28T06:37:52.510Z,84.81
2022-10-28T06:38:54.453Z,85.16
2022-10-28T06:39:57.543Z,85.25
2022-10-28T06:40:59.448Z,85.31
2022-10-28T06:42:01.297Z,85.23
2022-10-28T06:43:04.490Z,84.58
2022-10-28T06:44:06.349Z,84.54
2022-10-28T06:45:08.421Z,84.49
2022-10-28T06:46:10.308Z,84.46
2022-10-28T06:47:13.740Z,84.48
2022-10-28T06:48:15.528Z,84.57
2022-10-28T06:49:17.382Z,84.44
2022-10-28T06:50:19.174Z,84.37
2022-10-28T06:51:20.947Z,84.25
2022-10-28T06:52:22.862Z,84.43
2022-10-28T06:53:25.291Z,84.16
2022-10-28T06:54:27.171Z,83.79
2022-10-28T06:55:29.305Z,83.90
2022-10-28T06:56:31.042Z,83.69
2022-10-28T06:57:32.850Z,83.40
2022-10-28T06:58:34.634Z,83.45
2022-10-28T06:59:36.577Z,83.90
2022-10-28T07:00:38.519Z,83.03
2022-10-28T07:01:40.435Z,83.71
2022-10-28T07:02:45.079Z,83.49
2022-10-28T07:03:47.891Z,83.74
2022-10-28T07:04:49.618Z,83.27
2022-10-28T07:05:52.061Z,83.42
2022-10-28T07:06:57.456Z,83.34
2022-10-28T07:07:59.280Z,83.20
2022-10-28T07:09:01.102Z,83.28
2022-10-28T07:10:03.907Z,83.58
2022-10-28T07:11:05.946Z,82.67
2022-10-28T07:12:08.057Z,83.32
2022-10-28T07:13:10.009Z,83.44
2022-10-28T07:14:11.845Z,83.24
2022-10-28T07:15:14.329Z,83.22
2022-10-28T07:16:16.142Z,83.59
2022-10-28T07:17:17.930Z,83.81
2022-10-28T07:18:20.524Z,83.62
2022-10-28T07:19:22.782Z,83.68
2022-10-28T07:20:26.228Z,83.48
2022-10-28T07:21:30.022Z,83.88
2022-10-28T07:22:31.842Z,83.41
2022-10-28T07:23:34.893Z,83.46
2022-10-28T07:24:36.644Z,83.39
2022-10-28T07:25:38.700Z,83.34
2022-10-28T07:26:40.451Z,83.71
2022-10-28T07:27:42.257Z,83.86
2022-10-28T07:28:44.356Z,84.06
2022-10-28T07:29:46.183Z,83.70
2022-10-28T07:30:47.984Z,84.12
2022-10-28T07:31:49.928Z,83.93
2022-10-28T07:32:52.293Z,83.95
2022-10-28T07:33:54.930Z,83.77
2022-10-28T07:34:56.721Z,83.60
2022-10-28T07:35:58.512Z,83.27
2022-10-28T07:37:00.321Z,82.99
2022-10-28T07:38:02.146Z,83.40
2022-10-28T07:39:04.104Z,83.75
2022-10-28T07:40:06.660Z,83.60
2022-10-28T07:41:09.445Z,82.75
2022-10-28T07:42:11.303Z,82.77
2022-10-28T07:43:13.108Z,83.08
2022-10-28T07:44:15.514Z,82.73
2022-10-28T07:45:18.054Z,82.40
2022-10-28T07:46:19.930Z,82.52
2022-10-28T07:47:22.692Z,82.08
2022-10-28T07:48:24.875Z,81.77
2022-10-28T07:49:26.781Z,81.60
2022-10-28T07:50:28.561Z,81.77
2022-10-28T07:51:30.386Z,81.56
2022-10-28T07:52:32.258Z,82.13
2022-10-28T07:53:34.749Z,81.29
2022-10-28T07:54:36.652Z,81.02
2022-10-28T07:55:38.416Z,80.84
2022-10-28T07:56:40.126Z,81.33
2022-10-28T07:57:41.987Z,80.64
2022-10-28T07:58:44.772Z,81.32
2022-10-28T07:59:46.572Z,80.91
2022-10-28T08:00:49.106Z,81.11
2022-10-28T08:01:51.053Z,80.72
2022-10-28T08:02:52.867Z,80.83
2022-10-28T08:03:54.889Z,81.00
2022-10-28T08:04:57.394Z,80.91
2022-10-28T08:06:02.811Z,80.31
2022-10-28T08:07:04.575Z,79.89
2022-10-28T08:08:06.342Z,79.73
2022-10-28T08:09:08.072Z,79.63
2022-10-28T08:10:10.103Z,79.22
2022-10-28T08:11:22.912Z,78.58
2022-10-28T08:12:24.988Z,78.80
2022-10-28T08:13:26.790Z,77.93
2022-10-28T08:14:28.587Z,77.54
2022-10-28T08:15:30.535Z,78.42
2022-10-28T08:16:32.324Z,78.17
2022-10-28T08:17:34.134Z,78.70
2022-10-28T08:18:36.775Z,78.37
2022-10-28T08:19:38.728Z,78.41
2022-10-28T08:20:40.618Z,78.41
2022-10-28T08:21:42.417Z,78.60
2022-10-28T08:22:44.183Z,77.56
2022-10-28T08:23:48.862Z,77.67
2022-10-28T08:24:50.646Z,77.42
2022-10-28T08:25:53.188Z,77.27
2022-10-28T08:26:54.937Z,76.57
2022-10-28T08:27:57.935Z,76.09
2022-10-28T08:29:01.755Z,76.68
2022-10-28T08:30:03.851Z,76.77
2022-10-28T08:31:09.533Z,77.50
2022-10-28T08:32:11.784Z,77.02
2022-10-28T08:33:13.639Z,76.82
2022-10-28T08:34:15.436Z,77.03
2022-10-28T08:35:17.363Z,76.64
2022-10-28T08:36:19.249Z,76.72
2022-10-28T08:37:21.113Z,76.87
2022-10-28T08:38:23.023Z,76.58
2022-10-28T08:39:24.765Z,75.95
2022-10-28T08:40:32.753Z,75.90
2022-10-28T08:41:36.355Z,76.01
2022-10-28T08:42:44.694Z,75.29
2022-10-28T08:43:57.905Z,74.71
2022-10-28T08:45:18.651Z,75.28
2022-10-28T08:46:26.243Z,73.68
2022-10-28T08:47:37.336Z,74.11
2022-10-28T08:48:40.169Z,73.51
2022-10-28T08:49:44.597Z,72.91
2022-10-28T08:50:53.519Z,73.01
2022-10-28T08:51:57.485Z,73.35
2022-10-28T08:52:59.764Z,72.92
2022-10-28T08:54:05.405Z,72.45
2022-10-28T08:55:12.873Z,72.37
2022-10-28T08:56:22.726Z,72.08
2022-10-28T08:57:29.098Z,72.42
2022-10-28T08:58:34.042Z,72.26
2022-10-28T08:59:40.994Z,71.85
2022-10-28T09:00:44.889Z,71.45
2022-10-28T09:01:48.806Z,71.43
2022-10-28T09:02:54.037Z,70.91
2022-10-28T09:03:56.110Z,70.45
2022-10-28T09:05:16.737Z,71.02
2022-10-28T09:06:18.677Z,69.78
2022-10-28T09:07:22.175Z,69.56
2022-10-28T09:08:25.339Z,70.52
2022-10-28T09:09:27.185Z,69.57
2022-10-28T09:10:47.682Z,69.46
2022-10-28T09:11:56.937Z,69.19
2022-10-28T09:13:05.803Z,69.83
2022-10-28T09:14:26.204Z,68.08
2022-10-28T09:15:45.971Z,68.58
2022-10-28T09:16:48.840Z,67.96
2022-10-28T09:17:50.766Z,67.89
2022-10-28T09:18:53.975Z,66.44
2022-10-28T09:20:11.645Z,66.99
2022-10-28T09:21:18.652Z,66.74
2022-10-28T09:22:25.265Z,67.19
2022-10-28T09:23:31.433Z,67.21
2022-10-28T09:24:44.885Z,67.27
2022-10-28T09:26:20.447Z,66.71
2022-10-28T09:27:30.942Z,66.34
2022-10-28T09:28:38.544Z,66.42
2022-10-28T09:29:48.313Z,65.52
2022-10-28T09:30:50.071Z,65.31
2022-10-28T09:32:01.567Z,65.21
2022-10-28T09:33:14.409Z,65.72
2022-10-28T09:34:34.532Z,64.47
2022-10-28T09:35:41.995Z,63.82
2022-10-28T09:36:47.594Z,64.06
2022-10-28T09:37:52.889Z,64.75
2022-10-28T09:38:56.515Z,64.13
2022-10-28T09:40:03.605Z,63.91
2022-10-28T09:41:05.415Z,64.63
2022-10-28T09:42:08.900Z,63.71
2022-10-28T09:43:31.128Z,63.84
2022-10-28T09:44:41.544Z,64.07
2022-10-28T09:45:46.446Z,63.18
2022-10-28T09:46:49.837Z,64.31
2022-10-28T09:47:58.718Z,64.41
2022-10-28T09:49:03.680Z,62.67
2022-10-28T09:50:08.728Z,63.32
2022-10-28T09:51:20.802Z,62.72
2022-10-28T09:52:27.459Z,62.91
2022-10-28T09:53:37.893Z,62.76
2022-10-28T09:54:42.790Z,63.43
2022-10-28T09:55:44.622Z,62.51
2022-10-28T09:56:46.382Z,63.16
2022-10-28T09:57:50.537Z,62.66
2022-10-28T09:58:53.323Z,61.71
2022-10-28T09:59:55.156Z,61.17
2022-10-28T10:00:57.878Z,60.14
2022-10-28T10:01:59.770Z,60.28
2022-10-28T10:03:01.781Z,61.03
2022-10-28T10:04:12.733Z,61.87
2022-10-28T10:05:17.248Z,61.58
2022-10-28T10:06:38.875Z,61.12
2022-10-28T10:07:49.697Z,61.02
2022-10-28T10:08:52.524Z,61.77
2022-10-28T10:09:54.414Z,61.06
2022-10-28T10:11:01.202Z,61.09
2022-10-28T10:12:06.548Z,60.41
2022-10-28T10:13:09.336Z,60.53
2022-10-28T10:14:12.991Z,58.19
2022-10-28T10:15:18.833Z,59.89
2022-10-28T10:16:34.425Z,58.85
2022-10-28T10:17:40.035Z,57.51
2022-10-28T10:18:48.611Z,58.77
2022-10-28T10:20:01.296Z,58.79
2022-10-28T10:21:04.086Z,59.21
2022-10-28T10:22:05.934Z,58.98
2022-10-28T10:23:21.856Z,58.29
2022-10-28T10:24:23.703Z,58.04
2022-10-28T10:25:30.099Z,57.94
2022-10-28T10:26:33.156Z,56.60
2022-10-28T10:27:35.090Z,58.14
2022-10-28T10:28:38.928Z,57.19
2022-10-28T10:29:48.327Z,56.35
2022-10-28T10:30:52.906Z,56.64
2022-10-28T10:32:24.219Z,57.17
2022-10-28T10:33:31.844Z,56.29
2022-10-28T10:34:33.908Z,56.57
2022-10-28T10:35:36.919Z,55.28
2022-10-28T10:36:48.950Z,56.61
2022-10-28T10:37:51.946Z,55.41
2022-10-28T10:38:56.270Z,56.47
2022-10-28T10:39:59.958Z,55.71
2022-10-28T10:41:02.262Z,55.71
2022-10-28T10:42:15.583Z,54.14
2022-10-28T10:43:21.115Z,54.36
2022-10-28T10:44:22.871Z,55.19
2022-10-28T10:45:25.994Z,55.49
2022-10-28T10:46:30.402Z,54.94
2022-10-28T10:47:32.322Z,55.12
2022-10-28T10:48:36.686Z,54.77
2022-10-28T10:49:38.521Z,54.22
2022-10-28T10:50:41.252Z,54.54
2022-10-28T10:52:12.380Z,55.46
2022-10-28T10:53:28.347Z,55.77
2022-10-28T10:54:31.767Z,54.11
2022-10-28T10:55:37.894Z,55.54
2022-10-28T10:56:39.908Z,54.35
2022-10-28T10:57:46.178Z,54.17
2022-10-28T10:58:51.815Z,54.75
2022-10-28T10:59:54.651Z,55.29
2022-10-28T11:00:58.394Z,54.49
2022-10-28T11:02:00.451Z,54.36
2022-10-28T11:03:04.743Z,54.81
2022-10-28T11:04:07.412Z,55.86
2022-10-28T11:05:10.466Z,53.57
2022-10-28T11:06:23.442Z,53.48
2022-10-28T11:07:26.323Z,54.22
2022-10-28T11:08:48.336Z,53.60
2022-10-28T11:09:50.815Z,53.61
2022-10-28T11:11:04.709Z,53.67
2022-10-28T11:12:25.886Z,51.94
2022-10-28T11:13:28.159Z,54.16
2022-10-28T11:14:31.701Z,53.05
2022-10-28T11:15:33.755Z,52.80
2022-10-28T11:16:49.213Z,52.86
2022-10-28T11:18:01.667Z,52.22
2022-10-28T11:19:15.483Z,51.46
2022-10-28T11:20:31.344Z,51.40
2022-10-28T11:21:33.047Z,51.76
2022-10-28T11:22:40.641Z,50.79
2022-10-28T11:23:52.874Z,51.68
2022-10-28T11:24:55.785Z,52.54
2022-10-28T11:26:01.696Z,52.75
2022-10-28T11:27:15.876Z,53.53
2022-10-28T11:28:34.417Z,52.72
2022-10-28T11:29:36.252Z,52.38
2022-10-28T11:30:46.494Z,52.65
2022-10-28T11:32:00.553Z,52.59
2022-10-28T11:33:28.675Z,51.79
2022-10-28T11:34:40.424Z,50.78
2022-10-28T11:35:45.248Z,50.60
2022-10-28T11:37:09.991Z,51.54
2022-10-28T11:38:33.103Z,49.39
2022-10-28T11:39:37.880Z,50.71
2022-10-28T11:40:46.778Z,49.44
2022-10-28T11:41:57.683Z,49.39
2022-10-28T11:43:02.441Z,50.48
2022-10-28T11:44:08.830Z,52.18
2022-10-28T11:45:33.926Z,51.89
2022-10-28T11:46:36.014Z,52.75
2022-10-28T11:48:01.099Z,53.53
2022-10-28T11:49:16.371Z,51.53
2022-10-28T11:50:32.009Z,49.86
2022-10-28T11:51:39.922Z,51.65
2022-10-28T11:52:50.198Z,49.40
2022-10-28T11:54:14.317Z,49.93
2022-10-28T11:55:32.353Z,51.22
2022-10-28T11:56:34.102Z,51.01
2022-10-28T11:57:45.270Z,49.52
2022-10-28T11:59:02.133Z,48.93
2022-10-28T12:00:22.326Z,49.53
2022-10-28T12:01:36.255Z,50.93
2022-10-28T12:02:49.406Z,49.81
2022-10-28T12:04:01.579Z,49.45
2022-10-28T12:05:22.661Z,50.28
2022-10-28T12:06:46.011Z,49.51
2022-10-28T12:07:57.796Z,48.92
2022-10-28T12:09:11.889Z,49.27
2022-10-28T12:10:32.406Z,49.05
2022-10-28T12:11:47.497Z,49.39
2022-10-28T12:12:58.335Z,49.31
2022-10-28T12:14:23.062Z,51.06
2022-10-28T12:15:24.859Z,50.17
2022-10-28T12:16:49.379Z,50.53
2022-10-28T12:18:00.205Z,48.86
2022-10-28T12:19:02.067Z,49.46
2022-10-28T12:20:08.577Z,50.69
2022-10-28T12:21:18.759Z,49.72
2022-10-28T12:22:40.813Z,50.61
2022-10-28T12:23:43.241Z,49.30
2022-10-28T12:24:46.336Z,49.02
2022-10-28T12:25:51.678Z,50.24
2022-10-28T12:26:58.187Z,50.34
2022-10-28T12:28:29.297Z,49.38
2022-10-28T12:29:37.659Z,50.13
2022-10-28T12:30:42.458Z,50.66
2022-10-28T12:31:48.024Z,50.91
2022-10-28T12:32:59.762Z,50.92
2022-10-28T12:34:05.287Z,51.04
2022-10-28T12:35:27.422Z,49.56
2022-10-28T12:36:38.897Z,49.49
2022-10-28T12:37:47.709Z,50.62
2022-10-28T12:38:50.774Z,50.10
2022-10-28T12:40:21.579Z,50.71
2022-10-28T12:41:23.427Z,49.58
2022-10-28T12:42:32.244Z,49.50
2022-10-28T12:43:43.301Z,49.86
2022-10-28T12:44:47.733Z,50.11
2022-10-28T12:45:55.932Z,50.20
2022-10-28T12:47:16.686Z,49.15
2022-10-28T12:48:33.655Z,49.41
2022-10-28T12:49:53.714Z,48.88
2022-10-28T12:51:05.179Z,49.05
2022-10-28T12:52:17.947Z,50.14
2022-10-28T12:53:28.187Z,50.66
2022-10-28T12:54:37.882Z,50.43
2022-10-28T12:55:59.781Z,51.55
2022-10-28T12:57:22.343Z,53.48
2022-10-28T12:58:24.066Z,53.31
2022-10-28T12:59:32.966Z,52.58
2022-10-28T13:00:42.426Z,51.79
2022-10-28T13:01:45.906Z,52.69
2022-10-28T13:02:51.953Z,54.36
2022-10-28T13:03:54.791Z,54.15
2022-10-28T13:04:57.488Z,51.97
2022-10-28T13:06:02.048Z,53.99
2022-10-28T13:07:29.476Z,55.22
2022-10-28T13:08:31.623Z,53.82
2022-10-28T13:09:42.507Z,53.62
2022-10-28T13:11:10.921Z,54.27
2022-10-28T13:12:12.615Z,55.58
2022-10-28T13:13:25.320Z,55.73
2022-10-28T13:14:34.519Z,53.69
2022-10-28T13:15:42.076Z,53.24
2022-10-28T13:16:46.406Z,54.15
2022-10-28T13:18:07.004Z,55.00
2022-10-28T13:19:27.767Z,55.03
2022-10-28T13:20:53.591Z,55.46
2022-10-28T13:21:58.384Z,55.12
2022-10-28T13:23:18.975Z,55.93
2022-10-28T13:24:25.212Z,53.83
2022-10-28T13:25:46.481Z,53.70
2022-10-28T13:26:48.781Z,54.83
2022-10-28T13:27:56.467Z,55.07
2022-10-28T13:29:00.741Z,55.91
2022-10-28T13:30:03.879Z,55.69
2022-10-28T13:31:07.442Z,56.25
2022-10-28T13:32:24.218Z,56.21
2022-10-28T13:33:30.188Z,56.02
2022-10-28T13:34:39.594Z,55.97
2022-10-28T13:35:41.503Z,56.57
2022-10-28T13:36:45.437Z,56.69
2022-10-28T13:37:48.572Z,56.76
2022-10-28T13:38:51.870Z,56.40
2022-10-28T13:39:53.846Z,56.78
2022-10-28T13:40:58.585Z,56.62
2022-10-28T13:42:12.735Z,56.97
2022-10-28T13:43:19.246Z,57.30
2022-10-28T13:44:21.083Z,57.44
2022-10-28T13:45:41.262Z,57.48
2022-10-28T13:47:01.187Z,56.75
2022-10-28T13:48:21.766Z,56.50
2022-10-28T13:49:24.861Z,56.49
2022-10-28T13:50:33.668Z,56.73
2022-10-28T13:51:44.772Z,57.22
2022-10-28T13:52:47.417Z,57.86
2022-10-28T13:53:56.917Z,57.71
2022-10-28T13:54:59.221Z,57.86
2022-10-28T13:56:11.608Z,58.11
2022-10-28T13:57:31.495Z,57.78
2022-10-28T13:58:34.312Z,58.52
2022-10-28T13:59:42.413Z,58.13
2022-10-28T14:00:46.757Z,57.91
2022-10-28T14:02:01.415Z,57.92
2022-10-28T14:03:16.910Z,57.82
2022-10-28T14:04:23.915Z,57.98
2022-10-28T14:05:37.775Z,57.93
2022-10-28T14:06:39.764Z,55.74
2022-10-28T14:07:52.120Z,55.98